Time;durP1;ratioP1;P1;durP2;ratioP2;P2;SDS_P1;SDS_P2;PMS_P1;PMS_P2;Temp;Humidity;BMP_temperature;BMP_pressure;BME280_temperature;BME280_humidity;BME280_pressure;Samples;Min_cycle;Max_cycle;Signal;HPM_P1;HPM_P2
2021/05/19 00:01:15;;;;;;;4.80;3.47;;;12.80;95.30;;;;;;5010707;28;20044;-78
2021/05/19 00:03:40;;;;;;;4.63;3.88;;;12.80;95.40;;;;;;5012312;28;20046;-79
2021/05/19 00:06:06;;;;;;;6.35;4.30;;;12.80;95.50;;;;;;5004219;28;20359;-78
2021/05/19 00:08:31;;;;;;;5.75;4.47;;;12.90;95.60;;;;;;5001346;28;20138;-77
2021/05/19 00:10:57;;;;;;;7.63;4.50;;;12.90;95.60;;;;;;5010321;28;20052;-79
2021/05/19 00:13:26;;;;;;;6.07;4.95;;;12.90;95.70;;;;;;5020689;28;20033;-79
2021/05/19 00:15:52;;;;;;;5.03;4.00;;;12.90;95.80;;;;;;5005330;28;20057;-77
2021/05/19 00:18:17;;;;;;;7.47;4.45;;;12.90;95.70;;;;;;5002073;28;20080;-78
2021/05/19 00:20:43;;;;;;;4.82;3.95;;;12.90;95.70;;;;;;5008283;28;20416;-79
2021/05/19 00:23:08;;;;;;;5.03;4.20;;;12.90;95.60;;;;;;5004060;28;20066;-79
2021/05/19 00:25:34;;;;;;;6.15;4.72;;;12.90;95.60;;;;;;5010011;28;20408;-79
2021/05/19 00:27:59;;;;;;;6.22;4.20;;;12.90;95.50;;;;;;5016716;28;20054;-78
2021/05/19 00:30:25;;;;;;;11.88;4.65;;;12.90;95.60;;;;;;5019076;28;20042;-79
2021/05/19 00:32:50;;;;;;;5.70;4.13;;;12.90;95.60;;;;;;5004364;28;20192;-79
2021/05/19 00:35:16;;;;;;;7.30;4.68;;;12.90;95.60;;;;;;5009081;28;20133;-79
2021/05/19 00:37:42;;;;;;;6.57;4.63;;;12.80;95.50;;;;;;5004643;28;20402;-80
2021/05/19 00:40:09;;;;;;;7.10;4.72;;;12.80;95.50;;;;;;5010017;28;20124;-79
2021/05/19 00:42:35;;;;;;;8.27;4.90;;;12.80;95.50;;;;;;5003195;28;20160;-79
2021/05/19 00:45:06;;;;;;;6.57;4.40;;;12.80;95.40;;;;;;5007134;28;20091;-79
2021/05/19 00:47:42;;;;;;;8.13;5.05;;;12.70;95.50;;;;;;5004989;28;20045;-79
2021/05/19 00:50:14;;;;;;;6.85;5.35;;;12.70;95.60;;;;;;5006217;28;20037;-79
2021/05/19 00:52:40;;;;;;;7.00;5.95;;;12.70;95.70;;;;;;5002127;28;20042;-79
2021/05/19 00:55:07;;;;;;;8.27;5.50;;;12.70;95.80;;;;;;5010649;28;20038;-80
2021/05/19 00:57:34;;;;;;;7.50;5.47;;;12.60;95.90;;;;;;5011294;28;20069;-80
2021/05/19 01:00:00;;;;;;;9.13;5.43;;;12.60;95.90;;;;;;5007684;28;20045;-79
2021/05/19 01:02:25;;;;;;;8.57;5.75;;;12.60;95.90;;;;;;5006714;28;20321;-79
2021/05/19 01:04:51;;;;;;;6.95;5.70;;;12.60;95.80;;;;;;5027194;28;20042;-79
2021/05/19 01:07:23;;;;;;;10.35;6.38;;;12.60;96.00;;;;;;5007912;28;20041;-80
2021/05/19 01:09:49;;;;;;;8.10;6.17;;;12.50;96.00;;;;;;5001545;28;20066;-80
2021/05/19 01:12:20;;;;;;;8.63;6.05;;;12.50;96.00;;;;;;5012988;28;20332;-80
2021/05/19 01:14:47;;;;;;;12.18;6.63;;;12.50;96.20;;;;;;5001611;28;20045;-80
2021/05/19 01:17:14;;;;;;;13.13;7.30;;;12.50;96.20;;;;;;5009434;28;20056;-81
2021/05/19 01:19:43;;;;;;;11.13;6.32;;;12.50;96.20;;;;;;4997962;28;20042;-80
2021/05/19 01:22:19;;;;;;;10.32;7.30;;;12.50;96.20;;;;;;5006061;28;20052;-80
2021/05/19 01:24:45;;;;;;;10.82;7.50;;;12.50;96.20;;;;;;5005959;28;20049;-79
2021/05/19 01:27:11;;;;;;;12.27;7.57;;;12.50;96.20;;;;;;5009254;28;20041;-80
2021/05/19 01:29:37;;;;;;;10.90;7.07;;;12.50;96.20;;;;;;5011987;28;20049;-79
2021/05/19 01:32:03;;;;;;;11.15;7.78;;;12.60;96.30;;;;;;4999654;28;20133;-79
2021/05/19 01:34:28;;;;;;;11.02;7.70;;;12.50;96.30;;;;;;4998104;28;20129;-79
2021/05/19 01:36:54;;;;;;;9.40;7.25;;;12.50;96.30;;;;;;5003570;28;20042;-79
2021/05/19 01:39:20;;;;;;;9.48;7.43;;;12.50;96.30;;;;;;5000061;28;20508;-80
2021/05/19 01:41:46;;;;;;;10.07;6.93;;;12.50;96.30;;;;;;5004955;28;20113;-79
2021/05/19 01:44:18;;;;;;;12.35;7.63;;;12.50;96.30;;;;;;5005389;28;20056;-79
2021/05/19 01:46:45;;;;;;;11.17;6.80;;;12.50;96.30;;;;;;5011152;28;20042;-79
2021/05/19 01:49:13;;;;;;;11.98;7.70;;;12.50;96.30;;;;;;5010066;28;20069;-79
2021/05/19 01:51:39;;;;;;;13.18;7.32;;;12.50;96.30;;;;;;5001889;28;20038;-79
2021/05/19 01:54:07;;;;;;;10.73;7.53;;;12.50;96.30;;;;;;5010477;28;20314;-79
2021/05/19 01:56:37;;;;;;;11.50;7.93;;;12.50;96.40;;;;;;5010589;28;20041;-79
2021/05/19 01:59:03;;;;;;;9.23;7.18;;;12.50;96.30;;;;;;4997322;28;20030;-79
2021/05/19 02:01:29;;;;;;;11.23;7.60;;;12.50;96.30;;;;;;4998870;28;20320;-78
2021/05/19 02:04:12;;;;;;;8.25;6.72;;;12.50;96.30;;;;;;4995773;28;20046;-80
2021/05/19 02:06:49;;;;;;;11.82;7.35;;;12.50;96.30;;;;;;4999726;28;20037;-79
2021/05/19 02:09:18;;;;;;;9.00;6.20;;;12.50;96.30;;;;;;5002969;28;20687;-79
2021/05/19 02:11:45;;;;;;;14.35;6.75;;;12.50;96.30;;;;;;5011972;28;20360;-78
2021/05/19 02:14:11;;;;;;;11.50;6.78;;;12.50;96.30;;;;;;5014081;28;20099;-80
2021/05/19 02:16:36;;;;;;;8.70;6.13;;;12.50;96.40;;;;;;5007498;28;20069;-79
2021/05/19 02:19:03;;;;;;;8.98;6.85;;;12.50;96.40;;;;;;5010442;28;20072;-78
2021/05/19 02:21:28;;;;;;;10.15;6.28;;;12.50;96.50;;;;;;5003089;28;20057;-79
2021/05/19 02:23:54;;;;;;;8.30;6.15;;;12.50;96.40;;;;;;5004965;28;20655;-80
2021/05/19 02:26:19;;;;;;;9.18;5.75;;;12.50;96.30;;;;;;5003012;28;20048;-79
2021/05/19 02:28:46;;;;;;;12.27;6.47;;;12.50;96.30;;;;;;5001304;28;20058;-79
2021/05/19 02:31:12;;;;;;;9.05;6.38;;;12.50;96.30;;;;;;5014473;28;20046;-79
2021/05/19 02:33:37;;;;;;;9.05;5.82;;;12.50;96.30;;;;;;5011270;28;20042;-79
2021/05/19 02:36:03;;;;;;;8.98;6.13;;;12.50;96.30;;;;;;5012037;28;20037;-79
2021/05/19 02:38:29;;;;;;;10.40;6.70;;;12.50;96.30;;;;;;5004197;28;20041;-79
2021/05/19 02:40:55;;;;;;;12.45;6.53;;;12.50;96.40;;;;;;5004891;28;20354;-79
2021/05/19 02:43:22;;;;;;;8.63;6.13;;;12.50;96.30;;;;;;5012840;28;20203;-80
2021/05/19 02:45:48;;;;;;;9.05;6.57;;;12.50;96.20;;;;;;5025293;28;20046;-79
2021/05/19 02:48:13;;;;;;;9.88;6.32;;;12.50;96.30;;;;;;5005839;28;20076;-79
2021/05/19 02:50:39;;;;;;;8.68;6.18;;;12.50;96.30;;;;;;5004785;28;20070;-79
2021/05/19 02:53:04;;;;;;;8.55;5.57;;;12.50;96.30;;;;;;4999784;28;20041;-80
2021/05/19 02:55:31;;;;;;;9.68;7.30;;;12.50;96.20;;;;;;5007050;28;20108;-79
2021/05/19 02:57:57;;;;;;;8.88;6.68;;;12.50;96.30;;;;;;5010036;28;20037;-80
2021/05/19 03:00:22;;;;;;;8.90;6.35;;;12.50;96.30;;;;;;5001834;28;20306;-79
2021/05/19 03:02:49;;;;;;;8.60;6.25;;;12.50;96.30;;;;;;5004832;28;20042;-79
2021/05/19 03:05:15;;;;;;;10.50;8.00;;;12.50;96.40;;;;;;5003983;28;20506;-79
2021/05/19 03:07:40;;;;;;;8.98;6.90;;;12.50;96.40;;;;;;5010452;28;20149;-81
2021/05/19 03:10:07;;;;;;;9.13;7.38;;;12.50;96.50;;;;;;5011295;28;20045;-78
2021/05/19 03:12:33;;;;;;;9.30;6.65;;;12.50;96.40;;;;;;5006058;28;20394;-80
2021/05/19 03:14:58;;;;;;;8.55;6.30;;;12.40;96.40;;;;;;5000880;28;20049;-79
2021/05/19 03:17:24;;;;;;;8.50;6.82;;;12.30;96.20;;;;;;5006637;28;20038;-79
2021/05/19 03:19:49;;;;;;;9.02;6.50;;;12.30;96.40;;;;;;5009627;28;20385;-79
2021/05/19 03:22:15;;;;;;;8.98;5.75;;;12.30;96.30;;;;;;5022486;28;20046;-80
2021/05/19 03:24:41;;;;;;;10.57;7.60;;;12.30;96.20;;;;;;5015328;28;20042;-79
2021/05/19 03:27:07;;;;;;;10.57;6.80;;;12.30;96.20;;;;;;4999337;28;20868;-79
2021/05/19 03:29:32;;;;;;;13.35;7.10;;;12.30;96.30;;;;;;5002593;28;20052;-79
2021/05/19 03:31:58;;;;;;;8.07;6.65;;;12.30;96.30;;;;;;5002574;28;20065;-79
2021/05/19 03:34:23;;;;;;;9.20;6.32;;;12.20;96.20;;;;;;5004625;28;20485;-79
2021/05/19 03:36:49;;;;;;;10.30;6.38;;;12.20;96.30;;;;;;5007493;28;20104;-79
2021/05/19 03:39:14;;;;;;;14.38;7.30;;;12.20;96.30;;;;;;5000645;28;20129;-79
2021/05/19 03:41:40;;;;;;;10.45;7.07;;;12.20;96.30;;;;;;5013500;28;20037;-79
2021/05/19 03:44:06;;;;;;;9.88;7.03;;;12.20;96.30;;;;;;5013606;28;20042;-79
2021/05/19 03:46:33;;;;;;;9.63;6.88;;;12.20;96.40;;;;;;5000042;28;20046;-79
2021/05/19 03:49:00;;;;;;;10.50;7.15;;;12.30;96.30;;;;;;5005363;28;20065;-79
2021/05/19 03:51:26;;;;;;;8.82;6.75;;;12.30;96.20;;;;;;5003271;28;20434;-78
2021/05/19 03:53:52;;;;;;;10.30;7.18;;;12.30;96.20;;;;;;5001383;28;20150;-79
2021/05/19 03:56:18;;;;;;;8.32;6.70;;;12.30;96.00;;;;;;5001624;28;20139;-79
2021/05/19 03:58:44;;;;;;;10.10;7.05;;;12.40;96.10;;;;;;4996176;28;20050;-79
2021/05/19 04:01:10;;;;;;;9.50;6.90;;;12.30;96.00;;;;;;5000070;28;20052;-79
2021/05/19 04:03:36;;;;;;;9.98;7.13;;;12.30;96.10;;;;;;5000387;28;20395;-79
2021/05/19 04:06:02;;;;;;;12.57;8.38;;;12.30;96.20;;;;;;5002737;28;20052;-80
2021/05/19 04:08:35;;;;;;;11.95;8.13;;;12.30;95.90;;;;;;4999154;28;20051;-79
2021/05/19 04:11:01;;;;;;;11.10;7.55;;;12.30;96.10;;;;;;4998171;28;20042;-79
2021/05/19 04:13:27;;;;;;;11.90;8.10;;;12.30;96.20;;;;;;5013528;28;20041;-79
2021/05/19 04:15:52;;;;;;;11.55;8.23;;;12.30;96.20;;;;;;5009174;28;20034;-81
2021/05/19 04:18:18;;;;;;;14.00;9.10;;;12.20;96.20;;;;;;5008925;28;20053;-80
2021/05/19 04:20:43;;;;;;;17.23;9.30;;;12.20;96.10;;;;;;5007395;28;20104;-80
2021/05/19 04:23:09;;;;;;;13.13;9.20;;;12.20;96.20;;;;;;5023210;28;20084;-79
2021/05/19 04:25:36;;;;;;;13.07;9.32;;;12.20;96.10;;;;;;5018265;28;20050;-79
2021/05/19 04:28:02;;;;;;;14.55;9.90;;;12.10;96.20;;;;;;5005934;28;20061;-80
2021/05/19 04:30:28;;;;;;;12.50;8.77;;;12.10;96.10;;;;;;5013827;28;20034;-79
2021/05/19 04:32:54;;;;;;;13.43;9.68;;;12.10;96.00;;;;;;5014933;28;20038;-80
2021/05/19 04:35:19;;;;;;;15.70;9.55;;;12.10;96.10;;;;;;4999388;28;20050;-79
2021/05/19 04:37:45;;;;;;;16.98;9.15;;;12.10;96.20;;;;;;5001159;28;20041;-79
2021/05/19 04:40:11;;;;;;;16.10;10.02;;;12.10;96.20;;;;;;5016321;28;20049;-79
2021/05/19 04:42:37;;;;;;;17.80;10.32;;;12.10;96.20;;;;;;5010038;28;20085;-80
2021/05/19 04:45:04;;;;;;;17.77;10.25;;;12.10;96.20;;;;;;5010449;28;20069;-79
2021/05/19 04:47:29;;;;;;;16.08;11.05;;;12.10;96.40;;;;;;5013324;28;20049;-80
2021/05/19 04:49:55;;;;;;;15.05;10.45;;;12.10;96.40;;;;;;5008521;28;20041;-80
2021/05/19 04:52:22;;;;;;;16.33;11.20;;;12.10;96.50;;;;;;5005886;28;20160;-79
2021/05/19 04:54:48;;;;;;;15.45;10.10;;;12.10;96.50;;;;;;5018574;28;20118;-79
2021/05/19 04:57:14;;;;;;;16.75;10.55;;;12.10;96.60;;;;;;5008434;28;20050;-79
2021/05/19 04:59:39;;;;;;;13.57;10.40;;;12.20;96.60;;;;;;5009518;28;20030;-80
2021/05/19 05:02:05;;;;;;;15.88;10.77;;;12.20;96.50;;;;;;5003185;28;20057;-78
2021/05/19 05:04:30;;;;;;;16.95;11.88;;;12.20;96.60;;;;;;5007945;28;20100;-78
2021/05/19 05:06:56;;;;;;;18.27;11.40;;;12.20;96.80;;;;;;5007640;28;20200;-80
2021/05/19 05:09:22;;;;;;;16.23;11.55;;;12.20;96.70;;;;;;4996723;28;20129;-79
2021/05/19 05:11:48;;;;;;;16.45;10.57;;;12.20;96.70;;;;;;5010346;28;20174;-79
2021/05/19 05:14:13;;;;;;;21.42;12.57;;;12.20;96.80;;;;;;5003386;28;20108;-80
2021/05/19 05:16:39;;;;;;;18.15;11.77;;;12.30;96.80;;;;;;5010450;28;20314;-79
2021/05/19 05:19:04;;;;;;;13.65;9.45;;;12.30;96.80;;;;;;5003418;28;20069;-80
2021/05/19 05:21:30;;;;;;;14.77;10.30;;;12.30;96.70;;;;;;5003689;28;20456;-79
2021/05/19 05:23:55;;;;;;;16.67;9.68;;;12.30;96.50;;;;;;5007848;28;20033;-79
2021/05/19 05:26:21;;;;;;;10.45;8.27;;;12.30;96.30;;;;;;5007994;28;20050;-80
2021/05/19 05:28:46;;;;;;;13.10;8.02;;;12.30;95.60;;;;;;5013504;28;20070;-79
2021/05/19 05:31:12;;;;;;;11.18;7.85;;;12.40;95.70;;;;;;5005315;28;20060;-78
2021/05/19 05:33:37;;;;;;;11.15;7.22;;;12.40;95.60;;;;;;5010764;28;20038;-78
2021/05/19 05:36:04;;;;;;;11.20;8.27;;;12.40;95.80;;;;;;5011351;28;20038;-79
2021/05/19 05:38:29;;;;;;;10.30;7.80;;;12.50;95.80;;;;;;5009408;28;20321;-79
2021/05/19 05:40:55;;;;;;;13.15;8.40;;;12.50;95.60;;;;;;5013803;28;20049;-79
2021/05/19 05:43:21;;;;;;;11.10;7.97;;;12.50;95.50;;;;;;5014042;28;20040;-79
2021/05/19 05:45:46;;;;;;;11.98;8.43;;;12.40;95.70;;;;;;5016705;28;20664;-79
2021/05/19 05:48:12;;;;;;;11.18;8.02;;;12.40;95.80;;;;;;5018171;28;20041;-79
2021/05/19 05:50:37;;;;;;;13.32;8.27;;;12.50;95.60;;;;;;5018940;28;20369;-79
2021/05/19 05:53:03;;;;;;;12.30;9.27;;;12.50;95.70;;;;;;5015339;28;20041;-80
2021/05/19 05:55:28;;;;;;;12.40;8.60;;;12.60;95.90;;;;;;5010947;28;20626;-79
2021/05/19 05:57:54;;;;;;;14.15;9.27;;;12.70;95.80;;;;;;5004262;28;20104;-79
2021/05/19 06:00:20;;;;;;;11.73;8.60;;;12.70;95.60;;;;;;5007924;28;20598;-80
2021/05/19 06:02:45;;;;;;;12.57;8.23;;;12.80;95.40;;;;;;5011509;28;20045;-79
2021/05/19 06:05:12;;;;;;;14.95;9.65;;;12.80;95.20;;;;;;5009074;28;20038;-80
2021/05/19 06:07:37;;;;;;;11.60;8.55;;;12.80;95.10;;;;;;5012444;28;20042;-80
2021/05/19 06:10:05;;;;;;;15.52;9.60;;;12.80;95.20;;;;;;5013504;28;20100;-79
2021/05/19 06:12:30;;;;;;;14.07;10.30;;;12.80;95.40;;;;;;5008805;28;20128;-80
2021/05/19 06:14:56;;;;;;;12.35;9.25;;;12.80;95.40;;;;;;5012494;28;20488;-79
2021/05/19 06:17:21;;;;;;;13.32;9.02;;;12.90;95.10;;;;;;5012920;28;20067;-79
2021/05/19 06:19:47;;;;;;;16.23;9.50;;;12.90;94.80;;;;;;5013834;28;20491;-79
2021/05/19 06:22:12;;;;;;;11.27;8.93;;;13.00;94.70;;;;;;5012850;28;20040;-79
2021/05/19 06:24:38;;;;;;;13.93;9.23;;;13.10;94.70;;;;;;5011316;28;20038;-79
2021/05/19 06:27:04;;;;;;;11.60;8.82;;;13.10;95.00;;;;;;5012287;28;20068;-80
2021/05/19 06:29:30;;;;;;;14.50;8.65;;;13.20;94.50;;;;;;5013745;28;20097;-79
2021/05/19 06:31:56;;;;;;;12.35;8.55;;;13.30;93.70;;;;;;5012521;28;20431;-79
2021/05/19 06:34:21;;;;;;;13.20;9.40;;;13.30;93.90;;;;;;5015572;28;20060;-80
2021/05/19 06:36:49;;;;;;;13.82;9.27;;;13.30;94.20;;;;;;5017002;28;20352;-80
2021/05/19 06:39:14;;;;;;;12.25;9.00;;;13.30;94.50;;;;;;5016651;28;20030;-79
2021/05/19 06:41:45;;;;;;;11.23;8.35;;;13.40;94.30;;;;;;5017094;28;20111;-80
2021/05/19 06:44:13;;;;;;;12.45;9.50;;;13.40;93.60;;;;;;5017577;28;20124;-80
2021/05/19 06:46:38;;;;;;;12.02;9.23;;;13.40;94.00;;;;;;5012651;28;20121;-80
2021/05/19 06:49:04;;;;;;;12.85;8.40;;;13.50;93.90;;;;;;5014782;28;20124;-79
2021/05/19 06:51:30;;;;;;;10.43;8.52;;;13.60;93.90;;;;;;5003571;28;20397;-79
2021/05/19 06:53:56;;;;;;;13.20;9.00;;;13.60;93.30;;;;;;5008170;28;20068;-80
2021/05/19 06:56:22;;;;;;;11.88;9.05;;;13.70;93.30;;;;;;5008242;28;20284;-79
2021/05/19 06:58:47;;;;;;;14.40;8.65;;;13.70;92.50;;;;;;5016277;28;20073;-80
2021/05/19 07:01:13;;;;;;;11.73;9.00;;;13.80;92.70;;;;;;5011800;28;20069;-80
2021/05/19 07:03:38;;;;;;;11.25;7.82;;;13.90;92.70;;;;;;5014067;28;20056;-80
2021/05/19 07:06:04;;;;;;;11.50;8.00;;;13.90;92.80;;;;;;5007181;28;20645;-80
2021/05/19 07:08:30;;;;;;;10.63;8.50;;;14.00;92.60;;;;;;5016480;28;20046;-80
2021/05/19 07:10:55;;;;;;;10.25;7.90;;;14.10;92.90;;;;;;5013907;28;20196;-80
2021/05/19 07:13:21;;;;;;;10.23;8.20;;;14.20;92.40;;;;;;5012970;28;20614;-80
2021/05/19 07:15:51;;;;;;;9.68;7.32;;;14.30;92.20;;;;;;5012158;28;20041;-78
2021/05/19 07:18:17;;;;;;;9.77;7.72;;;14.30;91.50;;;;;;5010797;28;20034;-79
2021/05/19 07:20:43;;;;;;;9.73;6.55;;;14.30;91.30;;;;;;5011110;28;20045;-80
2021/05/19 07:23:08;;;;;;;12.18;8.27;;;14.30;91.10;;;;;;5018489;28;20045;-79
2021/05/19 07:25:35;;;;;;;10.32;7.97;;;14.20;90.90;;;;;;5014962;28;20065;-80
2021/05/19 07:28:01;;;;;;;12.50;8.30;;;14.20;91.20;;;;;;5014682;28;20046;-80
2021/05/19 07:30:27;;;;;;;9.38;7.00;;;14.20;91.80;;;;;;5007418;28;20041;-80
2021/05/19 07:32:53;;;;;;;10.57;8.05;;;14.20;90.90;;;;;;5016242;28;20045;-82
2021/05/19 07:35:18;;;;;;;11.48;8.65;;;14.20;91.50;;;;;;5012296;28;20042;-81
2021/05/19 07:37:44;;;;;;;13.05;8.93;;;14.30;91.80;;;;;;5005189;28;20034;-81
2021/05/19 07:40:10;;;;;;;11.52;8.63;;;14.30;91.30;;;;;;5014098;28;20722;-80
2021/05/19 07:42:35;;;;;;;9.52;7.03;;;14.50;91.10;;;;;;5003484;28;20116;-80
2021/05/19 07:45:02;;;;;;;9.82;7.75;;;14.50;90.80;;;;;;5010459;28;20396;-80
2021/05/19 07:47:28;;;;;;;10.93;7.70;;;14.60;90.20;;;;;;5004946;28;20097;-80
2021/05/19 07:49:53;;;;;;;7.55;6.75;;;14.70;91.00;;;;;;5012880;28;20049;-80
2021/05/19 07:52:19;;;;;;;7.35;6.60;;;14.80;90.00;;;;;;5006835;28;20052;-80
2021/05/19 07:54:47;;;;;;;9.27;7.18;;;15.00;89.10;;;;;;5016571;28;20690;-80
2021/05/19 07:57:20;;;;;;;11.60;7.82;;;15.20;87.90;;;;;;5016589;28;20691;-80
2021/05/19 07:59:49;;;;;;;9.13;6.20;;;15.30;90.10;;;;;;5010837;28;20069;-80
2021/05/19 08:02:16;;;;;;;8.63;6.10;;;15.40;86.80;;;;;;5001514;28;20049;-80
2021/05/19 08:04:41;;;;;;;6.97;5.70;;;15.50;87.10;;;;;;5014980;28;20038;-78
2021/05/19 08:07:07;;;;;;;6.00;5.40;;;15.50;85.00;;;;;;5015197;28;20656;-78
2021/05/19 08:09:33;;;;;;;8.52;5.82;;;15.60;86.00;;;;;;5014544;28;20433;-79
2021/05/19 08:12:00;;;;;;;6.45;5.50;;;15.70;84.20;;;;;;5015937;28;20045;-79
2021/05/19 08:14:27;;;;;;;6.85;5.47;;;15.80;86.50;;;;;;5015152;28;20060;-80
2021/05/19 08:16:53;;;;;;;6.22;5.63;;;16.00;84.30;;;;;;5014925;28;20065;-80
2021/05/19 08:19:18;;;;;;;9.15;6.32;;;16.20;85.40;;;;;;5014702;28;20121;-73
2021/05/19 08:21:44;;;;;;;8.15;7.22;;;16.60;84.40;;;;;;5014566;28;20052;-79
2021/05/19 08:24:09;;;;;;;9.50;6.70;;;16.70;84.00;;;;;;5015953;28;20381;-79
2021/05/19 08:26:36;;;;;;;11.35;6.93;;;16.80;83.20;;;;;;5015885;28;20405;-78
2021/05/19 08:29:02;;;;;;;8.93;6.55;;;16.90;83.80;;;;;;5014064;28;20049;-78
2021/05/19 08:31:28;;;;;;;8.43;6.30;;;16.90;82.70;;;;;;5014696;28;20045;-79
2021/05/19 08:33:56;;;;;;;9.20;6.15;;;16.90;80.20;;;;;;5014898;28;20037;-79
2021/05/19 08:36:22;;;;;;;7.82;5.72;;;16.80;81.50;;;;;;5015054;28;20275;-78
2021/05/19 08:38:47;;;;;;;5.90;5.00;;;16.80;82.30;;;;;;5014920;28;20045;-79
2021/05/19 08:41:13;;;;;;;7.03;5.13;;;16.80;81.20;;;;;;5013997;28;20065;-79
2021/05/19 08:43:39;;;;;;;4.78;4.28;;;16.90;83.20;;;;;;5014995;28;20041;-78
2021/05/19 08:46:10;;;;;;;5.60;4.53;;;17.10;80.90;;;;;;5013887;28;20469;-79
2021/05/19 08:48:36;;;;;;;5.72;4.43;;;17.30;77.50;;;;;;5014782;28;20441;-79
2021/05/19 08:51:02;;;;;;;4.60;3.97;;;17.40;77.70;;;;;;5011631;28;20766;-78
2021/05/19 08:53:28;;;;;;;4.30;3.90;;;17.50;77.80;;;;;;5015057;28;20033;-79
2021/05/19 08:55:54;;;;;;;4.70;3.80;;;17.50;76.60;;;;;;5014407;28;20041;-79
2021/05/19 08:58:20;;;;;;;5.55;3.78;;;17.50;76.90;;;;;;5014049;28;20052;-79
2021/05/19 09:00:46;;;;;;;5.55;4.13;;;17.40;75.60;;;;;;5012969;28;20041;-78
2021/05/19 09:03:14;;;;;;;4.90;3.67;;;17.40;77.00;;;;;;5015020;28;20145;-78
2021/05/19 09:05:42;;;;;;;6.35;4.20;;;17.30;75.20;;;;;;5009164;28;20049;-78
2021/05/19 09:08:11;;;;;;;4.82;3.92;;;17.40;75.00;;;;;;5001775;28;20091;-79
2021/05/19 09:10:40;;;;;;;4.47;3.97;;;17.50;77.10;;;;;;5013697;28;20322;-78
2021/05/19 09:13:05;;;;;;;5.43;3.63;;;17.50;74.20;;;;;;5014491;28;20556;-79
2021/05/19 09:15:45;;;;;;;3.55;3.05;;;17.40;74.60;;;;;;5008187;28;20044;-78
2021/05/19 09:18:11;;;;;;;3.95;3.00;;;17.40;75.40;;;;;;5001201;28;20484;-78
2021/05/19 09:20:50;;;;;;;4.85;4.07;;;17.30;74.80;;;;;;5013440;28;20103;-80
2021/05/19 09:23:18;;;;;;;5.03;4.38;;;17.10;79.70;;;;;;5014262;28;20046;-80
2021/05/19 09:25:44;;;;;;;5.28;4.07;;;16.60;83.50;;;;;;5014303;28;20151;-80
2021/05/19 09:28:22;;;;;;;6.30;4.13;;;16.30;83.90;;;;;;5004807;28;20144;-81
2021/05/19 09:30:48;;;;;;;6.07;4.40;;;16.00;85.10;;;;;;5011927;28;20041;-81
2021/05/19 09:33:24;;;;;;;4.72;4.07;;;15.80;86.30;;;;;;5010165;28;20035;-80
2021/05/19 09:36:19;;;;;;;4.47;3.65;;;15.50;85.00;;;;;;4994921;28;20038;-79
2021/05/19 09:38:53;;;;;;;5.40;3.10;;;15.30;87.00;;;;;;4994495;28;20104;-79
2021/05/19 09:41:32;;;;;;;5.20;3.70;;;15.10;86.70;;;;;;5006580;28;20358;-79
2021/05/19 09:43:59;;;;;;;5.47;3.30;;;15.00;86.70;;;;;;5014510;28;20411;-80
2021/05/19 09:49:21;;;;;;;5.13;3.33;;;15.10;90.30;;;;;;5014004;28;20135;-81
2021/05/19 09:51:52;;;;;;;3.40;2.67;;;15.40;90.20;;;;;;5012766;28;20041;-80
2021/05/19 09:54:28;;;;;;;2.40;1.55;;;15.70;82.70;;;;;;5014025;28;20041;-80
2021/05/19 09:56:57;;;;;;;1.98;1.58;;;16.10;79.80;;;;;;5013526;28;20105;-79
2021/05/19 09:59:23;;;;;;;3.35;2.70;;;16.40;77.40;;;;;;4994372;28;20066;-80
2021/05/19 10:01:50;;;;;;;4.97;2.75;;;16.30;78.20;;;;;;4994177;28;20070;-81
2021/05/19 10:04:17;;;;;;;4.28;3.40;;;16.10;78.80;;;;;;4994684;28;20109;-79
2021/05/19 10:06:43;;;;;;;5.15;3.60;;;15.70;83.30;;;;;;5006367;28;20064;-78
2021/05/19 10:09:08;;;;;;;6.47;3.67;;;15.40;85.30;;;;;;5012986;28;20061;-76
2021/05/19 10:11:35;;;;;;;6.95;3.78;;;15.10;86.00;;;;;;5013299;28;20095;-79
2021/05/19 10:14:03;;;;;;;4.93;3.90;;;14.80;89.40;;;;;;5013506;28;20041;-78
2021/05/19 10:16:30;;;;;;;4.50;3.58;;;14.50;89.10;;;;;;5008280;28;20077;-78
2021/05/19 10:18:58;;;;;;;4.80;4.20;;;14.30;90.10;;;;;;4993270;28;20061;-79
2021/05/19 10:21:31;;;;;;;18.98;3.50;;;14.10;90.70;;;;;;4996022;28;20034;-79
2021/05/19 10:24:10;;;;;;;2.97;2.67;;;14.10;90.30;;;;;;5010315;28;20100;-75
2021/05/19 10:27:14;;;;;;;5.85;3.10;;;14.10;89.50;;;;;;4999044;28;20357;-76
2021/05/19 10:29:48;;;;;;;3.55;2.88;;;14.10;90.70;;;;;;4971247;28;20042;-76
2021/05/19 10:32:23;;;;;;;4.32;3.05;;;14.20;89.60;;;;;;5002834;28;20049;-76
2021/05/19 10:34:54;;;;;;;4.00;3.15;;;14.30;90.70;;;;;;5012341;28;20049;-75
2021/05/19 10:37:29;;;;;;;3.10;2.42;;;14.50;92.30;;;;;;5012426;28;20495;-75
2021/05/19 10:40:24;;;;;;;3.72;2.20;;;14.70;90.40;;;;;;5011446;28;20030;-73
2021/05/19 10:42:54;;;;;;;4.45;1.73;;;14.90;90.90;;;;;;4993926;28;20038;-76
2021/05/19 10:45:19;;;;;;;3.28;2.25;;;15.00;88.90;;;;;;5001796;28;20049;-75
2021/05/19 10:47:46;;;;;;;2.42;1.83;;;15.10;90.20;;;;;;5001030;28;20046;-76
2021/05/19 10:50:38;;;;;;;3.55;1.95;;;15.20;90.10;;;;;;5010594;28;20709;-76
2021/05/19 11:01:11;;;;;;;1.00;0.90;;;16.60;83.90;;;;;;4996867;28;20068;-77
2021/05/19 11:03:41;;;;;;;1.58;1.15;;;16.90;74.00;;;;;;4994985;28;20046;-77
2021/05/19 11:06:09;;;;;;;2.15;1.27;;;17.20;82.70;;;;;;5010073;28;20302;-78
2021/05/19 11:08:35;;;;;;;1.45;0.90;;;17.50;77.90;;;;;;5012484;28;20065;-78
2021/05/19 11:11:15;;;;;;;1.33;0.98;;;17.70;79.70;;;;;;5013122;28;20033;-78
2021/05/19 11:17:12;;;;;;;4.65;2.33;;;18.10;75.60;;;;;;5012807;28;20099;-77
2021/05/19 11:19:38;;;;;;;2.38;2.05;;;18.10;79.00;;;;;;5014039;28;20034;-77
2021/05/19 11:22:12;;;;;;;3.28;2.97;;;18.30;79.40;;;;;;5016387;28;20038;-76
2021/05/19 11:24:58;;;;;;;4.03;2.95;;;18.50;76.00;;;;;;5017026;28;20093;-76
2021/05/19 11:27:26;;;;;;;2.97;2.63;;;18.50;74.80;;;;;;5016540;28;20034;-76
2021/05/19 11:29:53;;;;;;;2.85;2.33;;;18.60;77.00;;;;;;5009706;28;20499;-78
2021/05/19 11:32:22;;;;;;;5.13;1.98;;;18.90;74.00;;;;;;4997978;28;20046;-77
2021/05/19 11:34:48;;;;;;;4.82;3.47;;;19.00;75.50;;;;;;5008109;28;20042;-77
2021/05/19 11:37:15;;;;;;;4.97;3.30;;;19.10;71.40;;;;;;5012464;28;20405;-77
2021/05/19 11:39:53;;;;;;;2.55;1.55;;;19.10;71.80;;;;;;5010940;28;20046;-77
2021/05/19 11:42:29;;;;;;;1.92;1.05;;;18.80;69.50;;;;;;5014097;28;20157;-78
2021/05/19 11:44:59;;;;;;;1.35;0.90;;;18.30;70.30;;;;;;5002191;28;20055;-76
2021/05/19 11:47:38;;;;;;;1.55;1.00;;;17.80;71.30;;;;;;5016067;28;20037;-77
2021/05/19 11:50:19;;;;;;;2.25;1.40;;;17.30;72.20;;;;;;5014103;28;20045;-77
2021/05/19 11:53:13;;;;;;;1.73;1.30;;;16.90;75.00;;;;;;5003307;28;20050;-77
2021/05/19 11:55:45;;;;;;;1.77;1.23;;;16.70;75.00;;;;;;4996498;28;20465;-76
2021/05/19 11:58:21;;;;;;;1.88;1.55;;;16.60;74.80;;;;;;5007731;28;20275;-77
2021/05/19 12:01:03;;;;;;;2.13;1.33;;;16.60;75.90;;;;;;5012639;28;20591;-77
2021/05/19 12:03:31;;;;;;;2.13;1.50;;;16.60;74.10;;;;;;4997476;28;20042;-77
2021/05/19 12:06:04;;;;;;;2.17;1.65;;;16.50;75.50;;;;;;5016347;28;20030;-77
2021/05/19 12:08:30;;;;;;;1.45;1.35;;;16.50;74.90;;;;;;5015103;28;20100;-77
2021/05/19 12:11:05;;;;;;;2.25;1.90;;;16.50;76.60;;;;;;5014149;28;20639;-78
2021/05/19 12:13:32;;;;;;;2.10;1.38;;;16.60;79.10;;;;;;5016124;28;20056;-77
2021/05/19 12:15:58;;;;;;;2.35;1.35;;;16.60;78.00;;;;;;5014341;28;20037;-78
2021/05/19 12:18:23;;;;;;;2.47;0.90;;;16.70;75.10;;;;;;5016105;28;20470;-77
2021/05/19 12:20:50;;;;;;;1.65;1.25;;;16.80;74.10;;;;;;5011423;28;20104;-77
2021/05/19 12:23:16;;;;;;;1.80;1.40;;;16.80;79.00;;;;;;5015580;28;20370;-77
2021/05/19 12:25:43;;;;;;;1.48;1.20;;;16.90;77.30;;;;;;4997361;28;20038;-78
2021/05/19 12:28:10;;;;;;;1.25;1.13;;;17.20;74.60;;;;;;4999890;28;20169;-78
2021/05/19 12:30:47;;;;;;;1.75;1.15;;;17.20;74.20;;;;;;5014648;28;20127;-77
2021/05/19 12:33:16;;;;;;;2.10;1.40;;;17.30;71.90;;;;;;5010799;28;20038;-78
2021/05/19 12:35:47;;;;;;;2.53;1.23;;;17.30;73.20;;;;;;5001993;28;20045;-78
2021/05/19 12:38:19;;;;;;;2.92;1.05;;;17.40;74.70;;;;;;5009846;28;20038;-77
2021/05/19 12:40:47;;;;;;;2.00;0.82;;;17.40;75.10;;;;;;4997383;28;20154;-76
2021/05/19 12:43:25;;;;;;;1.55;0.90;;;17.60;73.60;;;;;;5006906;28;20049;-77
2021/05/19 12:45:52;;;;;;;1.23;1.00;;;17.60;71.20;;;;;;5008029;28;20104;-77
2021/05/19 12:48:20;;;;;;;1.63;0.90;;;17.80;67.50;;;;;;5015009;28;20045;-77
2021/05/19 12:50:52;;;;;;;1.40;1.10;;;17.80;66.20;;;;;;5014946;28;20046;-76
2021/05/19 12:53:39;;;;;;;1.27;0.90;;;18.00;67.40;;;;;;4999636;28;20038;-77
2021/05/19 12:56:16;;;;;;;1.42;1.05;;;18.00;67.40;;;;;;5015982;28;20081;-77
2021/05/19 12:58:52;;;;;;;1.70;1.20;;;18.20;70.00;;;;;;5014828;28;20092;-77
2021/05/19 13:01:19;;;;;;;2.33;1.77;;;18.30;66.00;;;;;;5005400;28;20377;-77